Terminal Aerodrome Forecast
Issued by NWS Bismarck, ND

Home | Current Version | Previous Version | Graphics & Text | Print | Product List | Glossary On
Versions: 1 2 3 4 5 6 7 8 9 10 11 12 13 14 15 16 17 18 19 20 21 22 23
000
FTUS43 KBIS 151720
TAFBIS
TAF
KBIS 151720Z 1518/1618 32012G20KT P6SM VCSH SCT018
     FM152000 34011KT P6SM FEW020
     FM152300 05006KT P6SM SCT250
     FM160800 11010KT P6SM SCT200
     FM161600 14015G23KT P6SM BKN250=

USA.gov is the U.S. government's official web portal to all federal, state and local government web resources and services.